Aérodrome :
LOGIN :

S'inscrire | Disclaimer

   EN    FR    IT 

 










Légende :    VFR   VFR Marginal   IFR   IFR Intensif   IFR Très Intensif
Visi : 
Plafond : 
>= 8 km
>= 3000ft
5 à 8 km
1000 à 3000 ft
1500m à 5 km
500 à 1000 ft
800 à 1500m
200 à 500 ft
< 800m
< 200 ft
Symboles :   Orages  Brouillard  Fortes neiges  Fortes précipitations  Vent > 20 kt
SIGMETs :   Divers  Orages  Givrage  Turbulence  Onde Orograph.  Cendres Volcan.







- Altitude de l'aérodrome : 306 ft
- Code IATA : EMA
- Voir les cartes d'approche


EGNX - Nottingham East Midlands

DERNIER METAR :
  • 190320Z 26013KT 9999 SCT013 12/10 Q1012

METARs EXPIRÉS :
  • 190250Z 25013KT 9999 SCT013 BKN045 12/10 Q1011
  • 190220Z 25014KT 9999 FEW015 SCT045 11/10 Q1011
  • 190150Z 24012KT 9999 SCT016 11/09 Q1011
  • 190120Z 24011KT 9999 SCT020 11/09 Q1011
  • 190050Z 25011KT 9999 FEW023 10/09 Q1010

TAF TAF EGNX
Valide du 19 à 00h jusqu'au 20 à 00h UTC


182259Z 1900/1924 21009KT 9999 FEW030
BECMG 1900/1903 27012KT
TEMPO 1909/1920 29018G28KT
PROB30
TEMPO 1910/1920 7000 SHRA
ATIS : +44 1332 852 852 (ext 3201)
Pas de NOTAMs connus pour ce terrain.



MET'MAP, la Météo Aéronautique d'un coup d'oeil ! - Copyright ORBIFLY Décembre 2007 - Disclaimer

ORBIFLY MET'MAP TEAM :

Programmation & Développement : Alexandra Zaïnal
Conception & Développement : Baudouin d'Aumeries
Co-Programmation & Développement : Marc-Olivier Méhu
Soutien technique & logistique : Manuel Goepfert

Contact : metmap@orbifly.com




SOURCES & CREDITS :

   NOAA